Terminal Aerodrome Forecast
Issued by NWS Paducah, KY

Home | Current Version | Previous Version | Text Only | Print | Product List | Glossary On
Versions: 1 2 3 4 5 6 7 8 9 10 11 12 13 14 15 16 17 18 19 20 21 22
000
FTUS43 KPAH 230500
TAFPAH
TAF
KPAH 230520Z 2306/2406 19007KT 6SM BR OVC008
     FM230900 21005KT 4SM BR BKN004 OVC080
     FM231500 VRB04KT 6SM BR BKN015 OVC040
     FM240000 36007KT 3SM -RA BR OVC008=

USA.gov is the U.S. government's official web portal to all federal, state and local government web resources and services.